Time;durP1;ratioP1;P1;durP2;ratioP2;P2;SDS_P1;SDS_P2;PMS_P1;PMS_P2;Temp;Humidity;BMP_temperature;BMP_pressure;BME280_temperature;BME280_humidity;BME280_pressure;Samples;Min_cycle;Max_cycle;Signal;HPM_P1;HPM_P2
2022/08/03 00:00:41;;;;;;;;;6.25;6.25;;;;;26.95;45.38;101103.06;5054103;28;45708;-52
2022/08/03 00:03:06;;;;;;;;;8.25;6.50;;;;;26.94;45.53;101112.00;5038987;28;45889;-53
2022/08/03 00:05:32;;;;;;;;;5.00;5.00;;;;;26.92;45.81;101106.78;5037583;28;45571;-52
2022/08/03 00:08:00;;;;;;;;;6.00;5.00;;;;;26.92;45.71;101116.59;5038681;28;46358;-50
2022/08/03 00:10:26;;;;;;;;;8.00;7.00;;;;;26.92;45.65;101105.94;5038286;28;45268;-52
2022/08/03 00:12:52;;;;;;;;;4.00;4.00;;;;;26.93;45.95;101112.97;5038886;28;45673;-48
2022/08/03 00:15:18;;;;;;;;;5.25;5.25;;;;;26.90;45.98;101110.53;5039311;28;45419;-51
2022/08/03 00:17:44;;;;;;;;;6.00;6.00;;;;;26.88;46.41;101113.31;5038272;28;46218;-53
2022/08/03 00:20:10;;;;;;;;;7.00;5.00;;;;;26.85;46.21;101111.72;5038435;28;45752;-54
2022/08/03 00:22:35;;;;;;;;;6.00;6.00;;;;;26.83;46.23;101108.38;5038498;28;45237;-53
2022/08/03 00:25:00;;;;;;;;;5.00;5.00;;;;;26.83;46.25;101121.66;5038614;28;45358;-48
2022/08/03 00:27:26;;;;;;;;;6.00;5.00;;;;;26.81;46.27;101123.59;5038123;28;46395;-52
2022/08/03 00:29:51;;;;;;;;;4.25;4.25;;;;;26.79;46.07;101117.53;5038242;28;48870;-51
2022/08/03 00:32:17;;;;;;;;;4.50;4.50;;;;;26.79;46.32;101119.38;5038956;28;45310;-51
2022/08/03 00:34:42;;;;;;;;;4.50;4.00;;;;;26.78;46.19;101120.31;5038362;28;45221;-53
2022/08/03 00:37:07;;;;;;;;;8.50;4.25;;;;;26.76;46.17;101116.91;5038169;28;46419;-52
2022/08/03 00:39:32;;;;;;;;;5.00;5.00;;;;;26.74;46.15;101109.03;5037822;28;45418;-52
2022/08/03 00:42:02;;;;;;;;;4.00;4.00;;;;;26.71;45.91;101109.28;5037140;28;45356;-53
2022/08/03 00:44:27;;;;;;;;;4.00;4.00;;;;;26.70;45.79;101112.91;5038254;28;45272;-52
2022/08/03 00:46:52;;;;;;;;;4.00;4.00;;;;;26.70;45.80;101119.06;5038049;28;46593;-49
2022/08/03 00:49:18;;;;;;;;;3.00;3.00;;;;;26.68;45.97;101105.03;5053847;28;45502;-51
2022/08/03 00:51:43;;;;;;;;;3.25;3.25;;;;;26.67;45.78;101114.00;5037937;28;45327;-53
2022/08/03 00:54:09;;;;;;;;;3.50;3.00;;;;;26.65;46.25;101104.44;5037060;28;45407;-49
2022/08/03 00:56:35;;;;;;;;;5.00;3.00;;;;;26.65;46.17;101104.44;5037821;28;45477;-50
2022/08/03 00:59:02;;;;;;;;;3.00;3.00;;;;;26.64;46.18;101113.38;5037874;28;45705;-52
2022/08/03 01:01:28;;;;;;;;;3.00;3.00;;;;;26.63;46.17;101103.69;5037906;28;45200;-49
2022/08/03 01:03:53;;;;;;;;;4.00;2.25;;;;;26.62;46.39;101104.69;5038194;28;45443;-51
2022/08/03 01:06:30;;;;;;;;;3.00;3.00;;;;;26.62;46.09;101104.69;5038055;28;46095;-52
2022/08/03 01:09:02;;;;;;;;;3.75;3.75;;;;;26.62;46.02;101102.03;5037746;28;45551;-52
2022/08/03 01:12:32;;;;;;;;;2.75;2.75;;;;;26.59;45.73;101095.13;5037631;28;45379;-51
2022/08/03 01:15:07;;;;;;;;;4.00;2.75;;;;;26.59;46.20;101094.28;4967858;28;45866;-54
2022/08/03 01:17:58;;;;;;;;;2.75;2.75;;;;;26.57;46.03;101086.41;5037412;28;45362;-54
2022/08/03 01:20:28;;;;;;;;;2.25;2.25;;;;;26.57;46.31;101083.75;5037376;28;45211;-52
2022/08/03 01:23:02;;;;;;;;;2.50;2.25;;;;;26.55;45.86;101089.19;5037801;28;45340;-52
2022/08/03 01:25:39;;;;;;;;;3.00;3.00;;;;;26.53;45.69;101085.81;5037608;28;45371;-52
2022/08/03 01:28:43;;;;;;;;;2.50;2.00;;;;;26.51;45.98;101079.75;5037558;28;46576;-51
2022/08/03 01:31:12;;;;;;;;;2.00;2.00;;;;;26.51;46.13;101079.75;5037475;28;45668;-53
2022/08/03 01:33:51;;;;;;;;;2.00;2.00;;;;;26.50;46.15;101079.88;5037317;28;45295;-52
2022/08/03 01:36:21;;;;;;;;;4.00;2.00;;;;;26.50;45.94;101077.22;5038021;28;45413;-49
2022/08/03 01:38:56;;;;;;;;;2.00;2.00;;;;;26.50;46.00;101080.75;5036419;28;45457;-53
2022/08/03 01:41:30;;;;;;;;;3.00;3.00;;;;;26.48;45.91;101074.69;5037313;28;45493;-53
2022/08/03 01:43:58;;;;;;;;;4.25;3.00;;;;;26.47;46.07;101072.13;5036089;28;45374;-51
2022/08/03 01:46:25;;;;;;;;;3.00;2.00;;;;;26.46;46.17;101073.97;5037234;28;45272;-49
2022/08/03 01:48:51;;;;;;;;;2.00;2.00;;;;;26.46;45.78;101068.66;5037163;28;45271;-50
2022/08/03 01:51:19;;;;;;;;;2.50;1.75;;;;;26.46;45.79;101071.31;5037577;28;45606;-50
2022/08/03 01:53:47;;;;;;;;;3.25;2.25;;;;;26.44;46.15;101075.88;5037561;28;45373;-49
2022/08/03 01:56:14;;;;;;;;;2.00;2.00;;;;;26.42;45.58;101069.00;5037334;28;45541;-51
2022/08/03 01:58:40;;;;;;;;;0.25;0.25;;;;;26.42;45.56;101067.19;5036689;28;46354;-51
2022/08/03 02:01:09;;;;;;;;;2.00;2.00;;;;;26.42;45.93;101074.31;5036963;28;45178;-51
2022/08/03 02:03:37;;;;;;;;;2.25;2.25;;;;;26.40;46.19;101069.13;5036754;28;45962;-50
2022/08/03 02:06:04;;;;;;;;;4.25;3.00;;;;;26.38;45.69;101066.56;5037251;28;45264;-52
2022/08/03 02:08:32;;;;;;;;;2.00;2.00;;;;;26.37;45.63;101066.72;5036577;28;45406;-51
2022/08/03 02:10:59;;;;;;;;;2.00;2.00;;;;;26.36;45.71;101067.66;5036981;28;45378;-53
2022/08/03 02:13:26;;;;;;;;;1.25;1.00;;;;;26.35;45.65;101061.50;5036671;28;45375;-49
2022/08/03 02:15:53;;;;;;;;;3.25;2.00;;;;;26.36;45.55;101059.69;5037111;28;45335;-53
2022/08/03 02:18:19;;;;;;;;;3.00;2.00;;;;;26.36;45.41;101057.03;5037092;28;45532;-50
2022/08/03 02:20:46;;;;;;;;;2.50;2.50;;;;;26.35;45.80;101052.69;5036969;28;45240;-53
2022/08/03 02:23:14;;;;;;;;;2.75;2.25;;;;;26.36;45.57;101059.69;5036836;28;45241;-53
2022/08/03 02:25:46;;;;;;;;;2.25;1.50;;;;;26.34;45.56;101051.00;5036727;28;45454;-53
2022/08/03 02:28:17;;;;;;;;;4.00;3.00;;;;;26.35;45.84;101047.38;5036511;28;46445;-51
2022/08/03 02:30:45;;;;;;;;;0.75;0.75;;;;;26.32;45.47;101050.25;5036366;28;45197;-53
2022/08/03 02:33:17;;;;;;;;;2.00;1.00;;;;;26.32;45.60;101050.25;5036618;28;45190;-53
2022/08/03 02:35:43;;;;;;;;;2.00;2.00;;;;;26.33;45.62;101044.84;5036651;28;45237;-52
2022/08/03 02:38:11;;;;;;;;;5.75;3.00;;;;;26.34;45.86;101053.66;5036263;28;46422;-52
2022/08/03 02:40:39;;;;;;;;;2.25;2.25;;;;;26.33;45.50;101054.63;5034804;28;45340;-53
2022/08/03 02:43:09;;;;;;;;;2.25;2.25;;;;;26.31;45.55;101048.56;5036532;28;45272;-51
2022/08/03 02:45:40;;;;;;;;;2.00;1.50;;;;;26.32;45.65;101047.59;5036607;28;45299;-53
2022/08/03 02:48:08;;;;;;;;;3.00;3.00;;;;;26.32;45.92;101050.25;5036179;28;45455;-53
2022/08/03 02:50:34;;;;;;;;;3.00;3.00;;;;;26.32;45.84;101045.81;5035976;28;45330;-52
2022/08/03 02:53:01;;;;;;;;;3.00;3.00;;;;;26.33;45.65;101042.19;5036291;28;45374;-51
2022/08/03 02:55:28;;;;;;;;;6.75;3.00;;;;;26.33;46.11;101044.84;5036380;28;45660;-51
2022/08/03 02:57:54;;;;;;;;;2.00;2.00;;;;;26.31;45.99;101038.78;5036091;28;45452;-50
2022/08/03 03:00:21;;;;;;;;;3.25;2.00;;;;;26.32;45.66;101039.63;5035883;28;45361;-49
2022/08/03 03:02:47;;;;;;;;;2.00;1.00;;;;;26.30;45.66;101033.59;5036606;28;45402;-48
2022/08/03 03:05:14;;;;;;;;;4.00;2.75;;;;;26.30;45.66;101034.44;5036495;28;45269;-49
2022/08/03 03:07:41;;;;;;;;;2.00;2.00;;;;;26.30;45.73;101036.25;5035822;28;45327;-50
2022/08/03 03:10:07;;;;;;;;;2.00;2.00;;;;;26.28;45.63;101024.91;5034557;28;45697;-48
2022/08/03 03:12:35;;;;;;;;;1.25;1.25;;;;;26.28;45.48;101030.22;5035918;28;45301;-51
2022/08/03 03:15:01;;;;;;;;;2.00;2.00;;;;;26.27;45.52;101031.19;5051732;28;45598;-48
2022/08/03 03:17:27;;;;;;;;;4.00;3.00;;;;;26.27;45.90;101033.84;5034715;28;46466;-51
2022/08/03 03:19:54;;;;;;;;;2.00;2.00;;;;;26.27;45.43;101031.19;5035639;28;45373;-51
2022/08/03 03:22:20;;;;;;;;;3.50;2.50;;;;;26.27;45.24;101025.88;5036117;28;45345;-49
2022/08/03 03:24:48;;;;;;;;;3.25;1.50;;;;;26.26;45.29;101026.84;5035196;28;45185;-52
2022/08/03 03:27:14;;;;;;;;;2.00;2.00;;;;;26.27;45.76;101029.34;5035692;28;46404;-54
2022/08/03 03:29:40;;;;;;;;;2.50;1.25;;;;;26.26;45.82;101024.19;5035610;28;45513;-51
2022/08/03 03:32:06;;;;;;;;;1.25;1.25;;;;;26.27;45.72;101023.22;5035870;28;45361;-55
2022/08/03 03:34:32;;;;;;;;;2.00;2.00;;;;;26.25;45.34;101025.97;5035494;28;45551;-53
2022/08/03 03:36:57;;;;;;;;;2.00;2.00;;;;;26.24;45.64;101032.25;5035594;28;46600;-52
2022/08/03 03:39:23;;;;;;;;;2.25;2.25;;;;;26.25;45.76;101025.97;5035261;28;45343;-51
2022/08/03 03:41:48;;;;;;;;;2.00;2.00;;;;;26.24;45.33;101021.63;5036005;28;45238;-52
2022/08/03 03:44:14;;;;;;;;;4.25;3.00;;;;;26.23;45.48;101019.94;5035717;28;45533;-51
2022/08/03 03:46:39;;;;;;;;;4.00;2.00;;;;;26.25;45.76;101025.97;5035235;28;46729;-51
2022/08/03 03:49:06;;;;;;;;;1.50;1.50;;;;;26.24;45.70;101022.47;5035393;28;45339;-50
2022/08/03 03:51:31;;;;;;;;;1.50;1.50;;;;;26.22;45.40;101019.09;5035250;28;45240;-51
2022/08/03 03:53:58;;;;;;;;;4.00;2.25;;;;;26.21;45.74;101021.88;5035729;28;45522;-49
2022/08/03 03:56:23;;;;;;;;;2.00;2.00;;;;;26.20;45.50;101021.00;5033635;28;47314;-51
2022/08/03 03:58:49;;;;;;;;;2.00;2.00;;;;;26.14;45.44;101017.97;5035490;28;45421;-54
2022/08/03 04:01:15;;;;;;;;;2.00;2.00;;;;;26.08;45.86;101020.13;5035833;28;45435;-49
2022/08/03 04:03:41;;;;;;;;;4.00;2.25;;;;;26.03;45.52;101022.28;5035305;28;45556;-51
2022/08/03 04:11:39;;;;;;;;;2.00;2.00;;;;;25.98;45.86;101016.47;5035087;28;45446;-52
2022/08/03 04:14:15;;;;;;;;;2.00;2.00;;;;;25.99;45.85;101019.97;5035426;28;45327;-52
2022/08/03 04:16:45;;;;;;;;;2.00;2.00;;;;;25.99;46.21;101022.63;5034991;28;46221;-52
2022/08/03 04:19:17;;;;;;;;;2.00;2.00;;;;;26.00;46.07;101030.50;5034936;28;45318;-54
2022/08/03 04:21:46;;;;;;;;;3.50;2.00;;;;;26.01;45.97;101028.66;5035042;28;45418;-53
2022/08/03 04:24:14;;;;;;;;;2.50;2.00;;;;;25.98;46.24;101020.94;5035553;28;45307;-55
2022/08/03 04:26:42;;;;;;;;;3.00;3.00;;;;;25.98;45.74;101012.97;5034683;28;46851;-51
2022/08/03 04:29:09;;;;;;;;;3.00;2.00;;;;;25.97;46.07;101013.91;5037199;28;45872;-53
2022/08/03 04:31:37;;;;;;;;;1.25;1.25;;;;;25.93;46.20;101019.50;5038355;28;45453;-53
2022/08/03 04:34:03;;;;;;;;;2.25;1.75;;;;;25.95;46.05;101021.19;5038718;28;45315;-53
2022/08/03 04:36:32;;;;;;;;;2.00;2.00;;;;;25.96;46.14;101012.25;5037990;28;46599;-50
2022/08/03 04:39:25;;;;;;;;;2.75;2.25;;;;;25.98;46.19;101018.28;5038218;28;45357;-53
2022/08/03 04:41:54;;;;;;;;;3.00;2.00;;;;;25.99;46.28;101017.31;5035901;28;45221;-49
2022/08/03 04:44:22;;;;;;;;;1.75;1.75;;;;;25.99;46.53;101020.84;5038323;28;45514;-51
2022/08/03 04:46:48;;;;;;;;;4.25;2.00;;;;;25.98;46.13;101023.59;5038361;28;46449;-48
2022/08/03 04:49:14;;;;;;;;;2.00;2.00;;;;;25.93;46.21;101019.50;5036852;28;45298;-51
2022/08/03 04:51:41;;;;;;;;;2.75;2.75;;;;;25.90;46.35;101019.72;5038020;28;45162;-52
2022/08/03 04:54:11;;;;;;;;;3.50;2.00;;;;;25.88;46.33;101020.78;5038370;28;45220;-49
2022/08/03 04:56:40;;;;;;;;;2.00;2.00;;;;;25.85;46.52;101013.88;5037836;28;46932;-52
2022/08/03 04:59:05;;;;;;;;;1.50;1.50;;;;;25.84;46.21;101019.31;5037990;28;45601;-49
2022/08/03 05:01:30;;;;;;;;;2.50;2.50;;;;;25.84;46.08;101020.19;5037818;28;45225;-49
2022/08/03 05:03:56;;;;;;;;;3.25;2.00;;;;;25.81;46.46;101019.53;5038243;28;45154;-52
2022/08/03 05:06:21;;;;;;;;;4.00;1.50;;;;;25.78;46.27;101017.97;5037555;28;46493;-52
2022/08/03 05:08:46;;;;;;;;;3.00;3.00;;;;;25.80;46.56;101018.72;5036646;28;45363;-52
2022/08/03 05:11:12;;;;;;;;;2.50;2.50;;;;;25.79;46.57;101022.31;5038012;28;45280;-52
2022/08/03 05:13:37;;;;;;;;;2.00;2.00;;;;;25.80;46.65;101020.53;5037849;28;45493;-51
2022/08/03 05:16:03;;;;;;;;;3.00;2.00;;;;;25.77;46.72;101026.91;5037818;28;45503;-52
2022/08/03 05:18:28;;;;;;;;;2.00;2.00;;;;;25.75;46.41;101027.03;5037540;28;45383;-50
2022/08/03 05:20:53;;;;;;;;;4.75;3.00;;;;;25.74;46.58;101024.50;5037573;28;45327;-50
2022/08/03 05:23:19;;;;;;;;;5.00;3.00;;;;;25.71;46.93;101025.56;5038129;28;45586;-52
2022/08/03 05:25:44;;;;;;;;;4.00;2.00;;;;;25.76;46.47;101028.72;5037583;28;47050;-51
2022/08/03 05:28:10;;;;;;;;;0.00;0.00;;;;;25.76;46.41;101027.84;5037533;28;45418;-49
2022/08/03 05:30:36;;;;;;;;;3.75;2.25;;;;;25.80;46.59;101034.66;5037228;28;45522;-50
2022/08/03 05:33:02;;;;;;;;;2.00;2.00;;;;;25.84;46.16;101028.16;5036314;28;45452;-51
2022/08/03 05:35:28;;;;;;;;;2.25;2.25;;;;;25.89;46.42;101036.59;5052513;28;48781;-48
2022/08/03 05:37:54;;;;;;;;;3.75;2.50;;;;;25.93;46.34;101029.25;5037407;28;45346;-50
2022/08/03 05:40:19;;;;;;;;;3.00;3.00;;;;;25.96;46.25;101039.66;5036910;28;45370;-51
2022/08/03 05:42:44;;;;;;;;;6.50;3.50;;;;;25.95;46.46;101032.63;5037597;28;45537;-52
2022/08/03 05:45:13;;;;;;;;;4.75;3.00;;;;;25.93;46.50;101035.41;5037315;28;45447;-48
2022/08/03 05:47:43;;;;;;;;;4.00;2.75;;;;;25.92;46.31;101038.16;5037048;28;45815;-53
2022/08/03 05:50:09;;;;;;;;;2.25;2.25;;;;;25.88;46.27;101034.91;5037189;28;45185;-51
2022/08/03 05:52:34;;;;;;;;;3.00;3.00;;;;;25.85;47.09;101029.81;5037320;28;45597;-49
2022/08/03 05:55:00;;;;;;;;;3.25;2.50;;;;;25.85;46.63;101029.81;5036995;28;46247;-50
2022/08/03 05:57:25;;;;;;;;;2.25;2.25;;;;;25.87;46.44;101035.88;5036779;28;45247;-48
2022/08/03 05:59:50;;;;;;;;;3.75;3.75;;;;;25.89;46.29;101031.28;5037043;28;45369;-48
2022/08/03 06:02:16;;;;;;;;;4.25;3.00;;;;;25.92;46.54;101033.72;5037633;28;45427;-49
2022/08/03 06:04:41;;;;;;;;;5.00;4.00;;;;;25.95;46.33;101035.28;5035368;28;47132;-45
2022/08/03 06:07:07;;;;;;;;;2.50;2.25;;;;;25.98;46.31;101042.16;5036816;28;45355;-46
2022/08/03 06:09:32;;;;;;;;;3.50;3.50;;;;;26.00;46.46;101040.25;5036633;28;45222;-48
2022/08/03 06:11:57;;;;;;;;;5.00;4.00;;;;;26.02;46.44;101051.63;5052461;28;45582;-47
2022/08/03 06:14:23;;;;;;;;;2.50;2.50;;;;;26.04;46.27;101053.19;5036492;28;46198;-46
2022/08/03 06:16:48;;;;;;;;;3.00;3.00;;;;;26.07;46.39;101049.47;5037138;28;45412;-45
2022/08/03 06:19:13;;;;;;;;;3.75;3.00;;;;;26.10;46.55;101046.59;5036666;28;45449;-46
2022/08/03 06:21:38;;;;;;;;;5.50;4.00;;;;;26.09;46.06;101047.53;5036632;28;45260;-48
2022/08/03 06:24:04;;;;;;;;;3.50;3.00;;;;;26.10;46.22;101046.59;5036522;28;45320;-45
2022/08/03 06:26:31;;;;;;;;;6.50;5.00;;;;;26.11;46.42;101048.28;5051795;28;46042;-47
2022/08/03 06:28:56;;;;;;;;;4.50;3.50;;;;;26.12;46.64;101047.31;5036916;28;45375;-49
2022/08/03 06:31:24;;;;;;;;;3.25;3.00;;;;;26.14;46.03;101048.06;5036529;28;45359;-48
2022/08/03 06:33:50;;;;;;;;;5.00;4.00;;;;;26.15;46.28;101044.44;5036336;28;47448;-46
2022/08/03 06:36:16;;;;;;;;;4.00;4.00;;;;;26.15;46.34;101049.75;5036707;28;45736;-48
2022/08/03 06:38:41;;;;;;;;;4.75;3.00;;;;;26.15;46.27;101052.41;5036232;28;45451;-47
2022/08/03 06:41:06;;;;;;;;;6.00;4.00;;;;;26.17;45.92;101047.84;5035319;28;45325;-49
2022/08/03 06:43:36;;;;;;;;;3.25;3.25;;;;;26.20;45.92;101050.22;5036046;28;46587;-48
2022/08/03 06:46:02;;;;;;;;;7.25;4.00;;;;;26.20;45.97;101050.22;5036136;28;45309;-48
2022/08/03 06:48:27;;;;;;;;;5.00;4.75;;;;;26.20;46.15;101055.53;5036127;28;45349;-50
2022/08/03 06:50:52;;;;;;;;;3.25;3.25;;;;;26.22;46.06;101056.28;5035284;28;45564;-47
2022/08/03 06:53:17;;;;;;;;;5.00;5.00;;;;;26.25;46.15;101049.88;5036558;28;46214;-46
2022/08/03 06:55:43;;;;;;;;;6.75;4.50;;;;;26.26;46.10;101050.75;5035975;28;45174;-44
2022/08/03 06:58:08;;;;;;;;;4.00;4.00;;;;;26.26;45.85;101064.03;5036113;28;45399;-47
2022/08/03 07:00:33;;;;;;;;;4.50;4.00;;;;;26.28;46.12;101062.09;5036043;28;45556;-44
2022/08/03 07:02:59;;;;;;;;;4.25;4.25;;;;;26.28;46.24;101054.13;5035852;28;46356;-47
2022/08/03 07:05:24;;;;;;;;;9.00;5.00;;;;;26.30;46.17;101062.81;5035838;28;45319;-47
2022/08/03 07:07:53;;;;;;;;;5.25;5.25;;;;;26.30;45.75;101053.03;5036247;28;45303;-45
2022/08/03 07:10:18;;;;;;;;;6.75;4.75;;;;;26.32;46.06;101055.56;5036495;28;45382;-46
2022/08/03 07:12:43;;;;;;;;;5.75;5.00;;;;;26.33;45.97;101059.94;5035653;28;46473;-46
2022/08/03 07:15:09;;;;;;;;;7.00;5.00;;;;;26.33;46.00;101052.81;5035890;28;45372;-47
2022/08/03 07:17:35;;;;;;;;;10.00;6.75;;;;;26.35;45.86;101060.66;5035716;28;45385;-48
2022/08/03 07:20:03;;;;;;;;;6.00;6.00;;;;;26.36;46.04;101057.88;5036090;28;45560;-46
2022/08/03 07:22:29;;;;;;;;;8.75;7.00;;;;;26.38;46.04;101055.94;5035374;28;46400;-45
2022/08/03 07:24:54;;;;;;;;;9.00;6.00;;;;;26.39;46.11;101052.34;5035808;28;45281;-45
2022/08/03 07:27:20;;;;;;;;;10.00;7.00;;;;;26.42;46.06;101055.72;5035882;28;45323;-46
2022/08/03 07:29:45;;;;;;;;;8.00;6.75;;;;;26.42;46.10;101053.91;5036383;28;45442;-47
2022/08/03 07:32:10;;;;;;;;;28.75;12.75;;;;;26.45;45.81;101045.69;5035529;28;46013;-45
2022/08/03 07:34:36;;;;;;;;;16.75;11.50;;;;;26.49;46.02;101047.16;5035190;28;49983;-50
2022/08/03 07:37:01;;;;;;;;;10.50;7.50;;;;;26.53;46.46;101050.41;5035905;28;45239;-45
2022/08/03 07:39:26;;;;;;;;;8.00;5.00;;;;;26.55;46.24;101040.53;5035512;28;45617;-45
2022/08/03 07:41:52;;;;;;;;;10.25;5.50;;;;;26.59;46.24;101046.44;5035608;28;45339;-44
2022/08/03 07:44:18;;;;;;;;;10.00;6.00;;;;;26.60;46.04;101042.81;5035912;28;45224;-44
2022/08/03 07:46:43;;;;;;;;;10.75;5.75;;;;;26.62;46.47;101044.38;5035357;28;45453;-45
2022/08/03 07:49:09;;;;;;;;;20.75;11.75;;;;;26.64;46.07;101054.88;5035675;28;45364;-47
2022/08/03 07:51:34;;;;;;;;;8.50;6.00;;;;;26.65;46.36;101057.44;5035294;28;46408;-46
2022/08/03 07:54:00;;;;;;;;;5.50;5.25;;;;;26.67;45.99;101052.00;5035488;28;45307;-46
2022/08/03 07:56:25;;;;;;;;;7.25;5.00;;;;;26.68;45.94;101051.84;5035302;28;45463;-46
2022/08/03 07:58:51;;;;;;;;;26.50;12.50;;;;;26.70;46.17;101051.75;5035594;28;45534;-48
2022/08/03 08:01:18;;;;;;;;;13.25;9.00;;;;;26.72;46.21;101046.31;5050949;28;47156;-47
2022/08/03 08:03:46;;;;;;;;;11.50;8.75;;;;;26.74;45.78;101050.53;5038071;28;45560;-47
2022/08/03 08:06:12;;;;;;;;;8.75;6.50;;;;;26.78;45.85;101051.19;5039000;28;45304;-47
2022/08/03 08:08:38;;;;;;;;;9.75;5.75;;;;;26.79;45.90;101052.88;5037367;28;45336;-45
2022/08/03 08:11:04;;;;;;;;;6.75;6.75;;;;;26.80;45.86;101050.09;5038737;28;46657;-50
2022/08/03 08:13:30;;;;;;;;;5.00;5.00;;;;;26.83;46.02;101052.53;5038593;28;45395;-48
2022/08/03 08:15:55;;;;;;;;;10.00;6.00;;;;;26.83;45.56;101044.53;5038695;28;45480;-47
2022/08/03 08:18:20;;;;;;;;;22.75;14.25;;;;;26.84;45.65;101048.88;5038678;28;45575;-46
2022/08/03 08:20:46;;;;;;;;;9.50;7.25;;;;;26.87;45.59;101046.94;5038698;28;45945;-47
2022/08/03 08:23:12;;;;;;;;;10.00;5.25;;;;;26.89;45.57;101047.66;5038458;28;45364;-48
2022/08/03 08:25:37;;;;;;;;;12.50;7.50;;;;;26.91;45.91;101046.56;5038452;28;45415;-49
2022/08/03 08:28:03;;;;;;;;;7.00;6.00;;;;;26.91;45.46;101046.56;5038696;28;45534;-48
2022/08/03 08:30:30;;;;;;;;;6.25;5.25;;;;;26.94;45.46;101043.66;5038096;28;47403;-48
2022/08/03 08:32:56;;;;;;;;;10.50;6.25;;;;;26.95;45.30;101047.19;5037130;28;45745;-45
2022/08/03 08:35:22;;;;;;;;;11.50;8.50;;;;;26.97;45.43;101042.56;5038355;28;45237;-62
2022/08/03 08:37:47;;;;;;;;;9.75;7.75;;;;;26.98;45.37;101034.50;5039046;28;45540;-57
2022/08/03 08:40:13;;;;;;;;;7.50;7.00;;;;;27.00;45.62;101031.69;5038078;28;46298;-60
2022/08/03 08:42:40;;;;;;;;;11.50;6.50;;;;;27.01;44.99;101033.38;5036826;28;45356;-56
2022/08/03 08:45:07;;;;;;;;;11.50;8.75;;;;;27.02;45.50;101032.44;5038414;28;45314;-59
2022/08/03 08:47:36;;;;;;;;;9.00;5.25;;;;;27.05;45.23;101028.66;5038246;28;45182;-58
2022/08/03 08:50:03;;;;;;;;;8.00;6.00;;;;;27.06;45.33;101028.56;5038135;28;46458;-58
2022/08/03 08:52:30;;;;;;;;;9.25;6.50;;;;;27.08;45.19;101029.25;5037913;28;45446;-57
2022/08/03 08:55:02;;;;;;;;;7.25;4.50;;;;;27.09;44.98;101028.28;5038177;28;45359;-56
2022/08/03 08:57:44;;;;;;;;;8.75;5.00;;;;;27.11;44.95;101026.34;5037923;28;45439;-56
2022/08/03 09:00:13;;;;;;;;;9.75;7.00;;;;;27.10;45.25;101018.50;5037831;28;46421;-57
2022/08/03 09:02:41;;;;;;;;;8.00;5.75;;;;;27.10;45.00;101022.00;5037585;28;45777;-56
2022/08/03 09:05:18;;;;;;;;;13.75;9.25;;;;;27.12;45.00;101019.25;5038029;28;45462;-58
2022/08/03 09:07:45;;;;;;;;;12.75;8.00;;;;;27.12;44.81;101028.06;5037816;28;45349;-58
2022/08/03 09:10:12;;;;;;;;;6.00;4.50;;;;;27.15;44.81;101026.94;5037557;28;46463;-65
2022/08/03 09:12:42;;;;;;;;;10.75;8.50;;;;;27.15;44.86;101019.84;5037614;28;45936;-48
2022/08/03 09:15:27;;;;;;;;;10.00;8.00;;;;;27.17;44.84;101020.53;5052331;28;45520;-53
2022/08/03 09:17:55;;;;;;;;;8.00;7.00;;;;;27.17;44.58;101015.19;5038021;28;45542;-49
2022/08/03 09:20:23;;;;;;;;;6.25;6.25;;;;;27.19;44.70;101015.09;5037212;28;47572;-48
2022/08/03 09:22:55;;;;;;;;;8.00;7.00;;;;;27.17;44.60;101009.88;5037820;28;45416;-49
2022/08/03 09:25:38;;;;;;;;;6.00;5.00;;;;;27.19;44.83;101015.09;5037358;28;45343;-50
2022/08/03 09:28:11;;;;;;;;;7.00;6.25;;;;;27.20;44.76;101013.28;5035930;28;45276;-52
2022/08/03 09:30:39;;;;;;;;;9.50;5.00;;;;;27.21;44.42;101009.63;5035955;28;46788;-54
2022/08/03 09:33:10;;;;;;;;;5.00;4.75;;;;;27.22;44.41;101014.00;5037303;28;45587;-51
2022/08/03 09:35:46;;;;;;;;;5.75;5.25;;;;;27.21;44.22;101012.31;5035993;28;45534;-51
2022/08/03 09:38:14;;;;;;;;;7.00;5.00;;;;;27.23;44.31;101007.72;5037195;28;45312;-53
2022/08/03 09:40:41;;;;;;;;;9.00;5.50;;;;;27.22;44.19;101014.84;5036591;28;45425;-53
2022/08/03 09:43:07;;;;;;;;;8.50;5.75;;;;;27.22;44.25;101012.19;5037232;28;45314;-53
2022/08/03 09:45:37;;;;;;;;;5.25;5.00;;;;;27.23;44.26;101007.72;5036947;28;45476;-54
2022/08/03 09:48:24;;;;;;;;;9.00;6.75;;;;;27.24;44.42;101006.75;5037485;28;45229;-53
2022/08/03 09:50:49;;;;;;;;;2.00;2.00;;;;;27.25;44.05;101005.78;5052977;28;48108;-52
2022/08/03 09:53:15;;;;;;;;;6.00;4.50;;;;;27.25;43.69;101000.44;5036934;28;45271;-53
2022/08/03 09:55:50;;;;;;;;;7.75;4.00;;;;;27.25;43.94;100993.28;5037054;28;45182;-53
2022/08/03 09:58:15;;;;;;;;;7.25;5.00;;;;;27.25;43.64;100992.47;5037790;28;45181;-52
2022/08/03 10:01:10;;;;;;;;;7.50;5.00;;;;;27.27;43.82;100993.19;5036651;28;45405;-54
2022/08/03 10:03:37;;;;;;;;;7.00;6.25;;;;;27.27;43.80;100993.19;5023636;28;45634;-52
2022/08/03 10:06:21;;;;;;;;;5.00;5.00;;;;;27.27;43.41;100987.88;5037007;28;45489;-53
2022/08/03 10:09:07;;;;;;;;;5.25;5.25;;;;;27.27;43.61;100986.03;5037175;28;45161;-53
2022/08/03 10:11:36;;;;;;;;;7.50;5.50;;;;;27.27;43.62;100988.69;5036058;28;45608;-53
2022/08/03 10:14:04;;;;;;;;;6.25;4.50;;;;;27.28;43.93;100990.41;5036858;28;45879;-53
2022/08/03 10:16:35;;;;;;;;;7.50;6.25;;;;;27.28;43.72;100979.75;5036695;28;45289;-52
2022/08/03 10:19:02;;;;;;;;;7.25;5.25;;;;;27.28;43.58;100982.41;5036922;28;45246;-52
2022/08/03 10:21:33;;;;;;;;;5.00;5.00;;;;;27.28;43.33;100981.59;5036344;28;46966;-51
2022/08/03 10:24:01;;;;;;;;;6.00;6.00;;;;;27.28;43.41;100977.09;5036550;28;45769;-51
2022/08/03 10:26:31;;;;;;;;;10.25;8.50;;;;;27.28;43.18;100973.59;5036038;28;45372;-49
2022/08/03 10:29:01;;;;;;;;;12.25;10.00;;;;;27.27;43.15;100975.41;5037046;28;45234;-51
2022/08/03 10:31:33;;;;;;;;;8.75;6.25;;;;;27.27;43.14;100963.94;5036076;28;46265;-51
2022/08/03 10:34:03;;;;;;;;;7.00;6.25;;;;;27.27;43.07;100964.75;5035305;28;45656;-52
2022/08/03 10:36:32;;;;;;;;;6.25;5.50;;;;;27.28;43.13;100968.28;5036491;28;45319;-53
2022/08/03 10:38:58;;;;;;;;;6.75;6.25;;;;;27.29;43.01;100965.47;5035520;28;45225;-53
2022/08/03 10:41:30;;;;;;;;;9.00;7.25;;;;;27.29;42.58;100959.28;5035885;28;51745;-52
2022/08/03 10:44:01;;;;;;;;;9.50;6.00;;;;;27.28;43.11;100952.31;5036087;28;45246;-54
2022/08/03 10:46:27;;;;;;;;;3.00;3.00;;;;;27.28;42.67;100947.00;5036384;28;45296;-53
2022/08/03 10:48:55;;;;;;;;;8.00;6.75;;;;;27.28;42.65;100957.63;5036712;28;45622;-53
2022/08/03 10:51:21;;;;;;;;;3.50;3.50;;;;;27.29;42.39;100952.16;5035975;28;46471;-54
2022/08/03 10:53:47;;;;;;;;;5.00;5.00;;;;;27.29;42.18;100951.31;5036601;28;45694;-53
2022/08/03 10:59:15;;;;;;;;;4.75;4.75;;;;;27.30;42.31;100945.03;5036543;28;45283;-50
2022/08/03 11:01:55;;;;;;;;;4.00;4.00;;;;;27.30;42.23;100948.53;5035886;28;45435;-54
2022/08/03 11:04:25;;;;;;;;;5.75;3.75;;;;;27.30;41.95;100942.34;5035731;28;45678;-50
2022/08/03 11:07:23;;;;;;;;;5.25;4.00;;;;;27.30;42.12;100942.34;5036186;28;45256;-53
2022/08/03 11:09:55;;;;;;;;;4.25;4.00;;;;;27.30;42.27;100937.03;5035165;28;45283;-53
2022/08/03 11:12:31;;;;;;;;;5.25;2.75;;;;;27.31;41.93;100936.06;5035767;28;46699;-53
2022/08/03 11:15:06;;;;;;;;;4.50;3.50;;;;;27.31;41.98;100928.94;5035977;28;45791;-53
2022/08/03 11:17:32;;;;;;;;;4.00;4.00;;;;;27.31;41.93;100928.94;5035867;28;45374;-54
2022/08/03 11:19:58;;;;;;;;;3.25;3.00;;;;;27.31;41.77;100920.97;5036065;28;45450;-52
2022/08/03 11:22:24;;;;;;;;;6.00;3.00;;;;;27.32;41.86;100919.13;5035573;28;45501;-53
2022/08/03 11:24:58;;;;;;;;;3.75;3.25;;;;;27.33;41.98;100920.00;5035883;28;45321;-52
2022/08/03 11:27:26;;;;;;;;;4.00;4.00;;;;;27.33;42.07;100923.47;5035719;28;45338;-53
2022/08/03 11:30:30;;;;;;;;;5.00;4.00;;;;;27.33;42.05;100912.84;5036004;28;45465;-54
2022/08/03 11:32:57;;;;;;;;;5.00;3.50;;;;;27.32;41.94;100911.16;5035200;28;46758;-52
2022/08/03 11:35:32;;;;;;;;;5.75;4.00;;;;;27.33;41.94;100914.66;5035422;28;45353;-54
2022/08/03 11:38:00;;;;;;;;;5.00;4.00;;;;;27.33;41.68;100912.84;5036347;28;45363;-54